sensor_id;sensor_type;location;lat;lon;timestamp;P1;durP1;ratioP1;P2;durP2;ratioP2
4595;SDS011;2310;49.978;8.742;2023-04-06T00:00:57;10.10;;;9.00;;
4595;SDS011;2310;49.978;8.742;2023-04-06T00:04:58;11.93;;;9.20;;
4595;SDS011;2310;49.978;8.742;2023-04-06T00:08:59;12.53;;;9.47;;
4595;SDS011;2310;49.978;8.742;2023-04-06T00:13:01;13.20;;;9.43;;
4595;SDS011;2310;49.978;8.742;2023-04-06T00:17:02;9.73;;;8.33;;
4595;SDS011;2310;49.978;8.742;2023-04-06T00:21:04;10.10;;;9.00;;
4595;SDS011;2310;49.978;8.742;2023-04-06T00:25:06;12.97;;;9.20;;
4595;SDS011;2310;49.978;8.742;2023-04-06T00:29:07;23.87;;;11.70;;
4595;SDS011;2310;49.978;8.742;2023-04-06T00:33:09;14.50;;;9.80;;
4595;SDS011;2310;49.978;8.742;2023-04-06T00:37:10;10.70;;;9.40;;
4595;SDS011;2310;49.978;8.742;2023-04-06T00:41:12;13.53;;;10.73;;
4595;SDS011;2310;49.978;8.742;2023-04-06T00:45:14;13.63;;;10.10;;
4595;SDS011;2310;49.978;8.742;2023-04-06T00:49:15;10.93;;;9.60;;
4595;SDS011;2310;49.978;8.742;2023-04-06T00:53:17;10.80;;;9.50;;
4595;SDS011;2310;49.978;8.742;2023-04-06T00:57:18;13.60;;;10.30;;
4595;SDS011;2310;49.978;8.742;2023-04-06T01:01:19;10.80;;;8.43;;
4595;SDS011;2310;49.978;8.742;2023-04-06T01:05:20;11.03;;;8.67;;
4595;SDS011;2310;49.978;8.742;2023-04-06T01:09:21;10.50;;;9.40;;
4595;SDS011;2310;49.978;8.742;2023-04-06T01:13:23;9.30;;;8.23;;
4595;SDS011;2310;49.978;8.742;2023-04-06T01:17:24;9.90;;;8.73;;
4595;SDS011;2310;49.978;8.742;2023-04-06T01:21:25;10.33;;;8.70;;
4595;SDS011;2310;49.978;8.742;2023-04-06T01:25:27;10.70;;;9.30;;
4595;SDS011;2310;49.978;8.742;2023-04-06T01:29:28;11.30;;;9.50;;
4595;SDS011;2310;49.978;8.742;2023-04-06T01:33:29;13.93;;;10.73;;
4595;SDS011;2310;49.978;8.742;2023-04-06T01:37:30;13.00;;;9.20;;
4595;SDS011;2310;49.978;8.742;2023-04-06T01:41:33;11.83;;;10.00;;
4595;SDS011;2310;49.978;8.742;2023-04-06T01:45:34;11.70;;;9.20;;
4595;SDS011;2310;49.978;8.742;2023-04-06T01:49:36;11.40;;;8.80;;
4595;SDS011;2310;49.978;8.742;2023-04-06T01:53:37;12.63;;;9.50;;
4595;SDS011;2310;49.978;8.742;2023-04-06T01:57:38;13.40;;;9.53;;
4595;SDS011;2310;49.978;8.742;2023-04-06T02:01:39;11.87;;;10.00;;
4595;SDS011;2310;49.978;8.742;2023-04-06T02:05:40;10.60;;;8.97;;
4595;SDS011;2310;49.978;8.742;2023-04-06T02:09:42;12.27;;;10.20;;
4595;SDS011;2310;49.978;8.742;2023-04-06T02:13:43;10.33;;;9.33;;
4595;SDS011;2310;49.978;8.742;2023-04-06T02:17:44;9.87;;;8.77;;
4595;SDS011;2310;49.978;8.742;2023-04-06T02:21:45;10.57;;;8.63;;
4595;SDS011;2310;49.978;8.742;2023-04-06T02:25:46;10.67;;;8.53;;
4595;SDS011;2310;49.978;8.742;2023-04-06T02:29:48;12.00;;;9.20;;
4595;SDS011;2310;49.978;8.742;2023-04-06T02:33:49;12.10;;;9.37;;
4595;SDS011;2310;49.978;8.742;2023-04-06T02:37:50;11.83;;;9.23;;
4595;SDS011;2310;49.978;8.742;2023-04-06T02:41:51;12.33;;;7.90;;
4595;SDS011;2310;49.978;8.742;2023-04-06T02:45:52;12.20;;;9.47;;
4595;SDS011;2310;49.978;8.742;2023-04-06T02:49:54;13.50;;;9.30;;
4595;SDS011;2310;49.978;8.742;2023-04-06T02:53:55;10.43;;;8.37;;
4595;SDS011;2310;49.978;8.742;2023-04-06T02:57:56;10.20;;;8.90;;
4595;SDS011;2310;49.978;8.742;2023-04-06T03:01:57;12.80;;;9.50;;
4595;SDS011;2310;49.978;8.742;2023-04-06T03:05:58;12.23;;;9.53;;
4595;SDS011;2310;49.978;8.742;2023-04-06T03:10:00;11.17;;;8.90;;
4595;SDS011;2310;49.978;8.742;2023-04-06T03:14:02;11.63;;;9.40;;
4595;SDS011;2310;49.978;8.742;2023-04-06T03:18:03;10.73;;;9.50;;
4595;SDS011;2310;49.978;8.742;2023-04-06T03:22:04;11.10;;;9.20;;
4595;SDS011;2310;49.978;8.742;2023-04-06T03:26:05;11.93;;;9.00;;
4595;SDS011;2310;49.978;8.742;2023-04-06T03:30:07;12.00;;;9.77;;
4595;SDS011;2310;49.978;8.742;2023-04-06T03:34:11;14.00;;;10.43;;
4595;SDS011;2310;49.978;8.742;2023-04-06T03:38:12;11.87;;;10.60;;
4595;SDS011;2310;49.978;8.742;2023-04-06T03:42:13;12.27;;;9.87;;
4595;SDS011;2310;49.978;8.742;2023-04-06T03:46:14;12.13;;;9.67;;
4595;SDS011;2310;49.978;8.742;2023-04-06T03:50:16;11.33;;;9.70;;
4595;SDS011;2310;49.978;8.742;2023-04-06T03:54:17;11.60;;;9.77;;
4595;SDS011;2310;49.978;8.742;2023-04-06T03:58:18;11.30;;;9.33;;
4595;SDS011;2310;49.978;8.742;2023-04-06T04:02:19;13.37;;;10.63;;
4595;SDS011;2310;49.978;8.742;2023-04-06T04:06:21;12.63;;;10.40;;
4595;SDS011;2310;49.978;8.742;2023-04-06T04:10:22;13.63;;;10.03;;
4595;SDS011;2310;49.978;8.742;2023-04-06T04:14:23;13.17;;;10.90;;
4595;SDS011;2310;49.978;8.742;2023-04-06T04:18:24;15.00;;;10.63;;
4595;SDS011;2310;49.978;8.742;2023-04-06T04:22:26;13.53;;;9.50;;
4595;SDS011;2310;49.978;8.742;2023-04-06T04:26:28;12.13;;;10.07;;
4595;SDS011;2310;49.978;8.742;2023-04-06T04:30:29;11.90;;;9.03;;
4595;SDS011;2310;49.978;8.742;2023-04-06T04:34:31;13.03;;;11.30;;
4595;SDS011;2310;49.978;8.742;2023-04-06T04:38:33;13.10;;;10.27;;
4595;SDS011;2310;49.978;8.742;2023-04-06T04:42:34;11.40;;;10.30;;
4595;SDS011;2310;49.978;8.742;2023-04-06T04:46:35;13.50;;;11.63;;
4595;SDS011;2310;49.978;8.742;2023-04-06T04:50:36;12.20;;;9.57;;
4595;SDS011;2310;49.978;8.742;2023-04-06T04:54:38;12.47;;;10.87;;
4595;SDS011;2310;49.978;8.742;2023-04-06T04:58:41;22.50;;;17.13;;
4595;SDS011;2310;49.978;8.742;2023-04-06T05:02:44;14.67;;;11.47;;
4595;SDS011;2310;49.978;8.742;2023-04-06T05:06:46;13.00;;;11.60;;
4595;SDS011;2310;49.978;8.742;2023-04-06T05:10:47;15.97;;;11.53;;
4595;SDS011;2310;49.978;8.742;2023-04-06T05:14:49;13.23;;;11.50;;
4595;SDS011;2310;49.978;8.742;2023-04-06T05:18:50;12.90;;;11.33;;
4595;SDS011;2310;49.978;8.742;2023-04-06T05:22:51;12.40;;;11.10;;
4595;SDS011;2310;49.978;8.742;2023-04-06T05:26:53;17.47;;;10.93;;
4595;SDS011;2310;49.978;8.742;2023-04-06T05:30:54;12.77;;;10.63;;
4595;SDS011;2310;49.978;8.742;2023-04-06T05:34:55;13.07;;;11.67;;
4595;SDS011;2310;49.978;8.742;2023-04-06T05:38:56;14.47;;;12.10;;
4595;SDS011;2310;49.978;8.742;2023-04-06T05:42:58;15.07;;;12.63;;
4595;SDS011;2310;49.978;8.742;2023-04-06T05:46:59;15.40;;;12.80;;
4595;SDS011;2310;49.978;8.742;2023-04-06T05:51:00;14.07;;;11.80;;
4595;SDS011;2310;49.978;8.742;2023-04-06T05:55:03;13.87;;;11.70;;
4595;SDS011;2310;49.978;8.742;2023-04-06T05:59:05;14.07;;;11.03;;
4595;SDS011;2310;49.978;8.742;2023-04-06T06:03:07;11.97;;;10.60;;
4595;SDS011;2310;49.978;8.742;2023-04-06T06:07:10;13.57;;;11.80;;
4595;SDS011;2310;49.978;8.742;2023-04-06T06:11:11;16.27;;;12.90;;
4595;SDS011;2310;49.978;8.742;2023-04-06T06:15:12;13.77;;;11.20;;
4595;SDS011;2310;49.978;8.742;2023-04-06T06:19:13;14.77;;;13.07;;
4595;SDS011;2310;49.978;8.742;2023-04-06T06:23:15;14.50;;;12.60;;
4595;SDS011;2310;49.978;8.742;2023-04-06T06:27:16;18.90;;;12.63;;
4595;SDS011;2310;49.978;8.742;2023-04-06T06:31:17;15.40;;;12.30;;
4595;SDS011;2310;49.978;8.742;2023-04-06T06:35:20;15.30;;;11.70;;
4595;SDS011;2310;49.978;8.742;2023-04-06T06:39:21;14.67;;;11.77;;
4595;SDS011;2310;49.978;8.742;2023-04-06T06:43:23;14.10;;;11.73;;
4595;SDS011;2310;49.978;8.742;2023-04-06T06:47:24;13.97;;;11.70;;
4595;SDS011;2310;49.978;8.742;2023-04-06T06:51:26;15.87;;;12.00;;
4595;SDS011;2310;49.978;8.742;2023-04-06T06:55:27;17.13;;;13.60;;
4595;SDS011;2310;49.978;8.742;2023-04-06T06:59:29;15.17;;;13.53;;
4595;SDS011;2310;49.978;8.742;2023-04-06T07:03:30;13.70;;;12.20;;
4595;SDS011;2310;49.978;8.742;2023-04-06T07:07:32;12.93;;;11.60;;
4595;SDS011;2310;49.978;8.742;2023-04-06T07:11:34;14.17;;;12.17;;
4595;SDS011;2310;49.978;8.742;2023-04-06T07:15:35;15.40;;;13.33;;
4595;SDS011;2310;49.978;8.742;2023-04-06T07:19:37;15.40;;;13.80;;
4595;SDS011;2310;49.978;8.742;2023-04-06T07:23:39;17.67;;;14.40;;
4595;SDS011;2310;49.978;8.742;2023-04-06T07:27:40;15.60;;;13.80;;
4595;SDS011;2310;49.978;8.742;2023-04-06T07:31:42;16.07;;;14.37;;
4595;SDS011;2310;49.978;8.742;2023-04-06T07:35:43;16.40;;;14.57;;
4595;SDS011;2310;49.978;8.742;2023-04-06T07:39:45;17.50;;;14.53;;
4595;SDS011;2310;49.978;8.742;2023-04-06T07:43:46;15.20;;;13.60;;
4595;SDS011;2310;49.978;8.742;2023-04-06T07:47:47;19.90;;;15.27;;
4595;SDS011;2310;49.978;8.742;2023-04-06T07:51:49;19.40;;;15.23;;
4595;SDS011;2310;49.978;8.742;2023-04-06T07:55:53;14.83;;;13.33;;
4595;SDS011;2310;49.978;8.742;2023-04-06T07:59:54;14.53;;;13.13;;
4595;SDS011;2310;49.978;8.742;2023-04-06T08:03:56;14.63;;;13.13;;
4595;SDS011;2310;49.978;8.742;2023-04-06T08:07:58;15.43;;;13.93;;
4595;SDS011;2310;49.978;8.742;2023-04-06T08:11:59;14.90;;;13.40;;
4595;SDS011;2310;49.978;8.742;2023-04-06T08:16:01;16.03;;;14.43;;
4595;SDS011;2310;49.978;8.742;2023-04-06T08:20:03;16.73;;;14.10;;
4595;SDS011;2310;49.978;8.742;2023-04-06T08:24:04;15.73;;;12.90;;
4595;SDS011;2310;49.978;8.742;2023-04-06T08:28:07;15.10;;;13.50;;
4595;SDS011;2310;49.978;8.742;2023-04-06T08:32:10;14.90;;;13.50;;
4595;SDS011;2310;49.978;8.742;2023-04-06T08:36:12;14.07;;;12.67;;
4595;SDS011;2310;49.978;8.742;2023-04-06T08:40:15;14.30;;;12.90;;
4595;SDS011;2310;49.978;8.742;2023-04-06T08:44:17;15.27;;;13.77;;
4595;SDS011;2310;49.978;8.742;2023-04-06T08:48:18;21.63;;;19.57;;
4595;SDS011;2310;49.978;8.742;2023-04-06T08:52:21;12.97;;;11.67;;
4595;SDS011;2310;49.978;8.742;2023-04-06T08:56:25;12.67;;;11.47;;
4595;SDS011;2310;49.978;8.742;2023-04-06T09:00:28;14.80;;;12.57;;
4595;SDS011;2310;49.978;8.742;2023-04-06T09:04:31;12.50;;;11.30;;
4595;SDS011;2310;49.978;8.742;2023-04-06T09:08:34;11.87;;;10.77;;
4595;SDS011;2310;49.978;8.742;2023-04-06T09:12:36;12.80;;;11.23;;
4595;SDS011;2310;49.978;8.742;2023-04-06T09:16:38;12.97;;;11.40;;
4595;SDS011;2310;49.978;8.742;2023-04-06T09:20:41;12.80;;;11.60;;
4595;SDS011;2310;49.978;8.742;2023-04-06T09:24:46;14.90;;;12.33;;
4595;SDS011;2310;49.978;8.742;2023-04-06T09:28:50;13.17;;;11.60;;
4595;SDS011;2310;49.978;8.742;2023-04-06T09:32:53;15.40;;;13.87;;
4595;SDS011;2310;49.978;8.742;2023-04-06T09:36:58;14.47;;;13.03;;
4595;SDS011;2310;49.978;8.742;2023-04-06T09:41:00;17.87;;;13.60;;
4595;SDS011;2310;49.978;8.742;2023-04-06T09:45:02;15.20;;;13.27;;
4595;SDS011;2310;49.978;8.742;2023-04-06T09:49:04;16.00;;;12.67;;
4595;SDS011;2310;49.978;8.742;2023-04-06T09:53:07;13.13;;;11.50;;
4595;SDS011;2310;49.978;8.742;2023-04-06T10:01:15;13.60;;;11.70;;
4595;SDS011;2310;49.978;8.742;2023-04-06T10:09:41;13.13;;;11.20;;
4595;SDS011;2310;49.978;8.742;2023-04-06T10:13:46;12.90;;;10.57;;
4595;SDS011;2310;49.978;8.742;2023-04-06T10:17:49;13.03;;;11.30;;
4595;SDS011;2310;49.978;8.742;2023-04-06T10:21:53;14.17;;;11.10;;
4595;SDS011;2310;49.978;8.742;2023-04-06T10:25:57;15.20;;;11.77;;
4595;SDS011;2310;49.978;8.742;2023-04-06T10:30:04;13.70;;;10.80;;
4595;SDS011;2310;49.978;8.742;2023-04-06T10:34:07;14.40;;;11.10;;
4595;SDS011;2310;49.978;8.742;2023-04-06T10:38:08;11.37;;;10.17;;
4595;SDS011;2310;49.978;8.742;2023-04-06T10:42:10;12.37;;;10.40;;
4595;SDS011;2310;49.978;8.742;2023-04-06T10:46:11;13.47;;;12.07;;
4595;SDS011;2310;49.978;8.742;2023-04-06T10:50:14;13.97;;;11.60;;
4595;SDS011;2310;49.978;8.742;2023-04-06T10:54:17;13.40;;;11.07;;
4595;SDS011;2310;49.978;8.742;2023-04-06T10:58:24;14.17;;;11.97;;
4595;SDS011;2310;49.978;8.742;2023-04-06T11:02:28;14.20;;;11.17;;
4595;SDS011;2310;49.978;8.742;2023-04-06T11:06:30;14.30;;;11.80;;
4595;SDS011;2310;49.978;8.742;2023-04-06T11:10:33;14.00;;;12.40;;
4595;SDS011;2310;49.978;8.742;2023-04-06T11:14:34;15.13;;;12.70;;
4595;SDS011;2310;49.978;8.742;2023-04-06T11:18:36;14.13;;;12.60;;
4595;SDS011;2310;49.978;8.742;2023-04-06T11:22:52;14.30;;;12.83;;
4595;SDS011;2310;49.978;8.742;2023-04-06T11:26:53;13.30;;;11.60;;
4595;SDS011;2310;49.978;8.742;2023-04-06T11:30:56;15.23;;;12.67;;
4595;SDS011;2310;49.978;8.742;2023-04-06T11:34:57;18.40;;;13.97;;
4595;SDS011;2310;49.978;8.742;2023-04-06T11:38:59;17.33;;;14.00;;
4595;SDS011;2310;49.978;8.742;2023-04-06T11:43:00;14.17;;;12.67;;
4595;SDS011;2310;49.978;8.742;2023-04-06T11:47:04;14.93;;;13.33;;
4595;SDS011;2310;49.978;8.742;2023-04-06T11:51:11;14.33;;;12.80;;
4595;SDS011;2310;49.978;8.742;2023-04-06T11:55:17;13.83;;;12.43;;
4595;SDS011;2310;49.978;8.742;2023-04-06T11:59:17;11.03;;;9.93;;
4595;SDS011;2310;49.978;8.742;2023-04-06T12:03:18;15.83;;;12.00;;
4595;SDS011;2310;49.978;8.742;2023-04-06T12:07:19;13.50;;;12.10;;
4595;SDS011;2310;49.978;8.742;2023-04-06T12:11:21;14.60;;;13.10;;
4595;SDS011;2310;49.978;8.742;2023-04-06T12:15:22;15.60;;;12.80;;
4595;SDS011;2310;49.978;8.742;2023-04-06T12:19:24;13.40;;;12.10;;
4595;SDS011;2310;49.978;8.742;2023-04-06T12:23:26;14.10;;;11.80;;
4595;SDS011;2310;49.978;8.742;2023-04-06T12:27:28;11.83;;;10.60;;
4595;SDS011;2310;49.978;8.742;2023-04-06T12:31:29;16.30;;;12.90;;
4595;SDS011;2310;49.978;8.742;2023-04-06T12:35:33;12.80;;;11.50;;
4595;SDS011;2310;49.978;8.742;2023-04-06T12:39:36;13.67;;;10.53;;
4595;SDS011;2310;49.978;8.742;2023-04-06T12:43:38;12.63;;;11.43;;
4595;SDS011;2310;49.978;8.742;2023-04-06T12:47:45;13.10;;;11.67;;
4595;SDS011;2310;49.978;8.742;2023-04-06T12:51:49;11.73;;;10.53;;
4595;SDS011;2310;49.978;8.742;2023-04-06T12:55:53;12.33;;;10.40;;
4595;SDS011;2310;49.978;8.742;2023-04-06T12:59:55;11.17;;;9.97;;
4595;SDS011;2310;49.978;8.742;2023-04-06T13:03:58;12.07;;;10.13;;
4595;SDS011;2310;49.978;8.742;2023-04-06T13:08:00;10.23;;;9.00;;
4595;SDS011;2310;49.978;8.742;2023-04-06T13:12:01;13.37;;;10.83;;
4595;SDS011;2310;49.978;8.742;2023-04-06T13:16:04;11.70;;;10.30;;
4595;SDS011;2310;49.978;8.742;2023-04-06T13:20:07;11.07;;;9.97;;
4595;SDS011;2310;49.978;8.742;2023-04-06T13:24:09;15.40;;;13.00;;
4595;SDS011;2310;49.978;8.742;2023-04-06T13:28:10;9.90;;;8.30;;
4595;SDS011;2310;49.978;8.742;2023-04-06T13:32:12;10.83;;;8.67;;
4595;SDS011;2310;49.978;8.742;2023-04-06T13:36:13;10.67;;;9.57;;
4595;SDS011;2310;49.978;8.742;2023-04-06T13:40:17;14.70;;;11.13;;
4595;SDS011;2310;49.978;8.742;2023-04-06T13:44:19;11.80;;;10.10;;
4595;SDS011;2310;49.978;8.742;2023-04-06T13:48:20;9.87;;;8.90;;
4595;SDS011;2310;49.978;8.742;2023-04-06T13:52:22;10.70;;;9.30;;
4595;SDS011;2310;49.978;8.742;2023-04-06T13:56:23;12.60;;;9.00;;
4595;SDS011;2310;49.978;8.742;2023-04-06T14:00:24;11.87;;;9.90;;
4595;SDS011;2310;49.978;8.742;2023-04-06T14:04:26;11.10;;;10.00;;
4595;SDS011;2310;49.978;8.742;2023-04-06T14:08:28;10.10;;;9.10;;
4595;SDS011;2310;49.978;8.742;2023-04-06T14:12:29;12.03;;;10.07;;
4595;SDS011;2310;49.978;8.742;2023-04-06T14:16:32;13.70;;;9.87;;
4595;SDS011;2310;49.978;8.742;2023-04-06T14:20:33;10.43;;;9.37;;
4595;SDS011;2310;49.978;8.742;2023-04-06T14:24:35;11.73;;;10.60;;
4595;SDS011;2310;49.978;8.742;2023-04-06T14:28:37;17.50;;;10.17;;
4595;SDS011;2310;49.978;8.742;2023-04-06T14:32:39;10.30;;;9.17;;
4595;SDS011;2310;49.978;8.742;2023-04-06T14:36:40;11.33;;;10.10;;
4595;SDS011;2310;49.978;8.742;2023-04-06T14:40:41;9.90;;;8.90;;
4595;SDS011;2310;49.978;8.742;2023-04-06T14:44:42;10.77;;;9.70;;
4595;SDS011;2310;49.978;8.742;2023-04-06T14:48:46;10.37;;;9.40;;
4595;SDS011;2310;49.978;8.742;2023-04-06T14:52:47;10.10;;;8.90;;
4595;SDS011;2310;49.978;8.742;2023-04-06T14:56:50;9.70;;;8.70;;
4595;SDS011;2310;49.978;8.742;2023-04-06T15:00:55;10.20;;;9.23;;
4595;SDS011;2310;49.978;8.742;2023-04-06T15:04:59;10.73;;;9.10;;
4595;SDS011;2310;49.978;8.742;2023-04-06T15:09:00;13.17;;;10.27;;
4595;SDS011;2310;49.978;8.742;2023-04-06T15:13:02;13.87;;;12.40;;
4595;SDS011;2310;49.978;8.742;2023-04-06T15:17:03;12.17;;;9.50;;
4595;SDS011;2310;49.978;8.742;2023-04-06T15:21:05;10.70;;;9.33;;
4595;SDS011;2310;49.978;8.742;2023-04-06T15:25:07;13.10;;;10.30;;
4595;SDS011;2310;49.978;8.742;2023-04-06T15:29:08;10.83;;;9.43;;
4595;SDS011;2310;49.978;8.742;2023-04-06T15:33:09;11.47;;;9.97;;
4595;SDS011;2310;49.978;8.742;2023-04-06T15:37:10;13.53;;;10.40;;
4595;SDS011;2310;49.978;8.742;2023-04-06T15:41:12;9.47;;;8.53;;
4595;SDS011;2310;49.978;8.742;2023-04-06T15:45:14;7.83;;;7.03;;
4595;SDS011;2310;49.978;8.742;2023-04-06T15:49:16;11.37;;;8.47;;
4595;SDS011;2310;49.978;8.742;2023-04-06T15:53:17;8.80;;;7.10;;
4595;SDS011;2310;49.978;8.742;2023-04-06T15:57:18;9.20;;;8.13;;
4595;SDS011;2310;49.978;8.742;2023-04-06T16:01:19;7.47;;;6.70;;
4595;SDS011;2310;49.978;8.742;2023-04-06T16:05:21;8.67;;;7.17;;
4595;SDS011;2310;49.978;8.742;2023-04-06T16:09:24;8.97;;;7.10;;
4595;SDS011;2310;49.978;8.742;2023-04-06T16:13:26;11.23;;;7.43;;
4595;SDS011;2310;49.978;8.742;2023-04-06T16:17:27;9.03;;;7.57;;
4595;SDS011;2310;49.978;8.742;2023-04-06T16:21:28;10.20;;;9.07;;
4595;SDS011;2310;49.978;8.742;2023-04-06T16:25:31;10.23;;;9.17;;
4595;SDS011;2310;49.978;8.742;2023-04-06T16:29:33;8.00;;;7.20;;
4595;SDS011;2310;49.978;8.742;2023-04-06T16:33:36;9.57;;;6.87;;
4595;SDS011;2310;49.978;8.742;2023-04-06T16:37:38;8.50;;;6.63;;
4595;SDS011;2310;49.978;8.742;2023-04-06T16:41:39;9.07;;;7.90;;
4595;SDS011;2310;49.978;8.742;2023-04-06T16:45:40;9.80;;;6.90;;
4595;SDS011;2310;49.978;8.742;2023-04-06T16:49:42;8.73;;;6.70;;
4595;SDS011;2310;49.978;8.742;2023-04-06T16:53:44;11.13;;;9.90;;
4595;SDS011;2310;49.978;8.742;2023-04-06T16:57:47;10.70;;;9.60;;
4595;SDS011;2310;49.978;8.742;2023-04-06T17:01:48;9.07;;;7.93;;
4595;SDS011;2310;49.978;8.742;2023-04-06T17:05:51;10.40;;;8.03;;
4595;SDS011;2310;49.978;8.742;2023-04-06T17:09:52;8.63;;;6.47;;
4595;SDS011;2310;49.978;8.742;2023-04-06T17:13:53;7.07;;;5.50;;
4595;SDS011;2310;49.978;8.742;2023-04-06T17:17:54;6.97;;;5.43;;
4595;SDS011;2310;49.978;8.742;2023-04-06T17:21:55;10.00;;;5.47;;
4595;SDS011;2310;49.978;8.742;2023-04-06T17:25:57;6.60;;;4.90;;
4595;SDS011;2310;49.978;8.742;2023-04-06T17:29:59;5.30;;;4.30;;
4595;SDS011;2310;49.978;8.742;2023-04-06T17:34:02;6.47;;;4.93;;
4595;SDS011;2310;49.978;8.742;2023-04-06T17:38:03;6.50;;;4.90;;
4595;SDS011;2310;49.978;8.742;2023-04-06T17:42:04;5.57;;;4.77;;
4595;SDS011;2310;49.978;8.742;2023-04-06T17:46:05;6.97;;;4.53;;
4595;SDS011;2310;49.978;8.742;2023-04-06T17:50:07;5.33;;;4.03;;
4595;SDS011;2310;49.978;8.742;2023-04-06T17:54:08;5.50;;;3.90;;
4595;SDS011;2310;49.978;8.742;2023-04-06T17:58:09;8.27;;;5.13;;
4595;SDS011;2310;49.978;8.742;2023-04-06T18:02:10;6.10;;;4.70;;
4595;SDS011;2310;49.978;8.742;2023-04-06T18:06:12;5.87;;;4.40;;
4595;SDS011;2310;49.978;8.742;2023-04-06T18:10:16;5.20;;;4.03;;
4595;SDS011;2310;49.978;8.742;2023-04-06T18:14:17;6.70;;;4.40;;
4595;SDS011;2310;49.978;8.742;2023-04-06T18:18:18;5.47;;;4.27;;
4595;SDS011;2310;49.978;8.742;2023-04-06T18:22:20;6.10;;;4.03;;
4595;SDS011;2310;49.978;8.742;2023-04-06T18:26:21;5.60;;;4.73;;
4595;SDS011;2310;49.978;8.742;2023-04-06T18:30:22;5.57;;;4.00;;
4595;SDS011;2310;49.978;8.742;2023-04-06T18:34:24;6.93;;;4.93;;
4595;SDS011;2310;49.978;8.742;2023-04-06T18:38:25;5.80;;;5.10;;
4595;SDS011;2310;49.978;8.742;2023-04-06T18:42:26;8.50;;;5.30;;
4595;SDS011;2310;49.978;8.742;2023-04-06T18:46:27;7.37;;;5.07;;
4595;SDS011;2310;49.978;8.742;2023-04-06T18:50:29;7.90;;;6.20;;
4595;SDS011;2310;49.978;8.742;2023-04-06T18:54:30;7.77;;;6.30;;
4595;SDS011;2310;49.978;8.742;2023-04-06T18:58:32;7.43;;;6.40;;
4595;SDS011;2310;49.978;8.742;2023-04-06T19:02:33;7.13;;;5.37;;
4595;SDS011;2310;49.978;8.742;2023-04-06T19:06:34;6.27;;;4.77;;
4595;SDS011;2310;49.978;8.742;2023-04-06T19:10:36;4.93;;;3.93;;
4595;SDS011;2310;49.978;8.742;2023-04-06T19:14:38;6.57;;;5.57;;
4595;SDS011;2310;49.978;8.742;2023-04-06T19:18:39;8.07;;;5.83;;
4595;SDS011;2310;49.978;8.742;2023-04-06T19:22:45;8.20;;;6.67;;
4595;SDS011;2310;49.978;8.742;2023-04-06T19:26:46;7.13;;;5.60;;
4595;SDS011;2310;49.978;8.742;2023-04-06T19:30:48;7.70;;;6.17;;
4595;SDS011;2310;49.978;8.742;2023-04-06T19:34:49;8.20;;;5.90;;
4595;SDS011;2310;49.978;8.742;2023-04-06T19:38:51;8.70;;;7.67;;
4595;SDS011;2310;49.978;8.742;2023-04-06T19:42:52;8.87;;;7.07;;
4595;SDS011;2310;49.978;8.742;2023-04-06T19:46:55;6.67;;;5.20;;
4595;SDS011;2310;49.978;8.742;2023-04-06T19:50:57;6.27;;;5.60;;
4595;SDS011;2310;49.978;8.742;2023-04-06T19:54:58;8.73;;;7.77;;
4595;SDS011;2310;49.978;8.742;2023-04-06T19:59:00;9.60;;;8.00;;
4595;SDS011;2310;49.978;8.742;2023-04-06T20:03:04;8.40;;;7.07;;
4595;SDS011;2310;49.978;8.742;2023-04-06T20:07:05;9.57;;;7.17;;
4595;SDS011;2310;49.978;8.742;2023-04-06T20:11:07;7.40;;;6.17;;
4595;SDS011;2310;49.978;8.742;2023-04-06T20:15:09;8.67;;;7.00;;
4595;SDS011;2310;49.978;8.742;2023-04-06T20:19:11;9.20;;;6.80;;
4595;SDS011;2310;49.978;8.742;2023-04-06T20:23:12;10.40;;;7.63;;
4595;SDS011;2310;49.978;8.742;2023-04-06T20:27:13;9.17;;;7.40;;
4595;SDS011;2310;49.978;8.742;2023-04-06T20:31:15;9.40;;;8.50;;
4595;SDS011;2310;49.978;8.742;2023-04-06T20:35:18;10.73;;;8.00;;
4595;SDS011;2310;49.978;8.742;2023-04-06T20:39:20;10.20;;;8.43;;
4595;SDS011;2310;49.978;8.742;2023-04-06T20:43:21;10.07;;;9.00;;
4595;SDS011;2310;49.978;8.742;2023-04-06T20:47:25;10.53;;;9.53;;
4595;SDS011;2310;49.978;8.742;2023-04-06T20:51:27;11.40;;;10.07;;
4595;SDS011;2310;49.978;8.742;2023-04-06T20:55:29;10.97;;;9.87;;
4595;SDS011;2310;49.978;8.742;2023-04-06T20:59:31;11.30;;;10.10;;
4595;SDS011;2310;49.978;8.742;2023-04-06T21:03:32;13.00;;;10.53;;
4595;SDS011;2310;49.978;8.742;2023-04-06T21:07:33;15.57;;;11.00;;
4595;SDS011;2310;49.978;8.742;2023-04-06T21:11:35;14.37;;;12.00;;
4595;SDS011;2310;49.978;8.742;2023-04-06T21:15:36;13.87;;;11.90;;
4595;SDS011;2310;49.978;8.742;2023-04-06T21:19:37;17.33;;;12.07;;
4595;SDS011;2310;49.978;8.742;2023-04-06T21:23:38;15.50;;;13.00;;
4595;SDS011;2310;49.978;8.742;2023-04-06T21:27:40;16.13;;;13.63;;
4595;SDS011;2310;49.978;8.742;2023-04-06T21:31:41;17.70;;;15.90;;
4595;SDS011;2310;49.978;8.742;2023-04-06T21:35:45;17.17;;;15.20;;
4595;SDS011;2310;49.978;8.742;2023-04-06T21:39:51;18.87;;;16.07;;
4595;SDS011;2310;49.978;8.742;2023-04-06T21:43:49;18.70;;;16.10;;
4595;SDS011;2310;49.978;8.742;2023-04-06T21:47:50;19.73;;;16.00;;
4595;SDS011;2310;49.978;8.742;2023-04-06T21:51:52;19.77;;;17.80;;
4595;SDS011;2310;49.978;8.742;2023-04-06T21:55:54;18.03;;;15.47;;
4595;SDS011;2310;49.978;8.742;2023-04-06T21:59:56;17.23;;;14.97;;
4595;SDS011;2310;49.978;8.742;2023-04-06T22:03:59;21.70;;;14.10;;
4595;SDS011;2310;49.978;8.742;2023-04-06T22:08:01;19.33;;;15.43;;
4595;SDS011;2310;49.978;8.742;2023-04-06T22:12:03;19.00;;;16.63;;
4595;SDS011;2310;49.978;8.742;2023-04-06T22:16:04;16.60;;;14.67;;
4595;SDS011;2310;49.978;8.742;2023-04-06T22:20:06;18.73;;;15.97;;
4595;SDS011;2310;49.978;8.742;2023-04-06T22:24:07;17.03;;;15.10;;
4595;SDS011;2310;49.978;8.742;2023-04-06T22:28:09;18.93;;;15.97;;
4595;SDS011;2310;49.978;8.742;2023-04-06T22:32:10;19.10;;;15.40;;
4595;SDS011;2310;49.978;8.742;2023-04-06T22:36:11;18.27;;;15.80;;
4595;SDS011;2310;49.978;8.742;2023-04-06T22:40:12;20.57;;;16.20;;
4595;SDS011;2310;49.978;8.742;2023-04-06T22:44:14;22.30;;;15.73;;
4595;SDS011;2310;49.978;8.742;2023-04-06T22:48:15;19.33;;;16.93;;
4595;SDS011;2310;49.978;8.742;2023-04-06T22:52:16;19.00;;;16.50;;
4595;SDS011;2310;49.978;8.742;2023-04-06T22:56:18;19.80;;;16.43;;
4595;SDS011;2310;49.978;8.742;2023-04-06T23:00:19;19.30;;;17.13;;
4595;SDS011;2310;49.978;8.742;2023-04-06T23:04:20;20.70;;;18.50;;
4595;SDS011;2310;49.978;8.742;2023-04-06T23:08:22;22.90;;;19.53;;
4595;SDS011;2310;49.978;8.742;2023-04-06T23:12:23;20.97;;;18.07;;
4595;SDS011;2310;49.978;8.742;2023-04-06T23:16:24;22.90;;;19.10;;
4595;SDS011;2310;49.978;8.742;2023-04-06T23:20:26;23.90;;;18.90;;
4595;SDS011;2310;49.978;8.742;2023-04-06T23:24:27;22.17;;;18.30;;
4595;SDS011;2310;49.978;8.742;2023-04-06T23:28:29;22.77;;;20.17;;
4595;SDS011;2310;49.978;8.742;2023-04-06T23:32:30;21.70;;;17.80;;
4595;SDS011;2310;49.978;8.742;2023-04-06T23:36:31;24.20;;;19.30;;
4595;SDS011;2310;49.978;8.742;2023-04-06T23:40:32;26.73;;;19.90;;
4595;SDS011;2310;49.978;8.742;2023-04-06T23:44:38;24.90;;;20.13;;
4595;SDS011;2310;49.978;8.742;2023-04-06T23:48:40;22.20;;;19.27;;
4595;SDS011;2310;49.978;8.742;2023-04-06T23:52:41;24.73;;;18.63;;
4595;SDS011;2310;49.978;8.742;2023-04-06T23:56:42;24.73;;;20.97;;
